createdAt,value
2023-03-25T00:00:00.076Z,7.50
2023-03-25T00:02:30.364Z,7.40
2023-03-25T00:04:57.396Z,7.40
2023-03-25T00:07:24.291Z,7.30
2023-03-25T00:09:51.364Z,7.20
2023-03-25T00:12:19.744Z,7.20
2023-03-25T00:14:55.446Z,7.20
2023-03-25T00:17:23.185Z,7.10
2023-03-25T00:19:50.645Z,7.10
2023-03-25T00:22:20.816Z,7.20
2023-03-25T00:24:48.205Z,7.10
2023-03-25T00:27:17.500Z,7.10
2023-03-25T00:29:45.648Z,7.10
2023-03-25T00:32:15.550Z,7.00
2023-03-25T00:34:47.423Z,7.00
2023-03-25T00:37:21.714Z,7.00
2023-03-25T00:39:48.909Z,7.00
2023-03-25T00:42:17.524Z,7.00
2023-03-25T00:44:44.418Z,7.00
2023-03-25T00:47:17.220Z,7.00
2023-03-25T00:49:44.399Z,7.00
2023-03-25T00:52:11.168Z,7.00
2023-03-25T00:54:38.116Z,7.00
2023-03-25T00:57:04.982Z,7.00
2023-03-25T00:59:31.837Z,7.00
2023-03-25T01:02:00.235Z,7.00
2023-03-25T01:04:27.456Z,6.90
2023-03-25T01:06:55.073Z,6.90
2023-03-25T01:09:21.836Z,6.80
2023-03-25T01:11:50.383Z,6.80
2023-03-25T01:14:19.976Z,6.70
2023-03-25T01:16:47.419Z,6.70
2023-03-25T01:19:15.393Z,6.70
2023-03-25T01:21:42.500Z,6.70
2023-03-25T01:24:13.048Z,6.70
2023-03-25T01:26:41.402Z,6.70
2023-03-25T01:29:08.247Z,6.70
2023-03-25T01:31:35.201Z,6.70
2023-03-25T01:34:02.428Z,6.60
2023-03-25T01:36:29.706Z,6.70
2023-03-25T01:38:59.051Z,6.70
2023-03-25T01:41:33.199Z,6.70
2023-03-25T01:44:31.068Z,6.70
2023-03-25T01:47:03.653Z,6.60
2023-03-25T01:49:31.313Z,6.60
2023-03-25T01:52:13.768Z,6.60
2023-03-25T01:54:41.735Z,6.50
2023-03-25T01:57:10.391Z,6.40
2023-03-25T01:59:38.676Z,6.40
2023-03-25T02:02:09.040Z,6.40
2023-03-25T02:04:45.352Z,6.30
2023-03-25T02:07:12.971Z,6.30
2023-03-25T02:09:39.925Z,6.20
2023-03-25T02:12:07.596Z,6.20
2023-03-25T02:14:37.101Z,6.10
2023-03-25T02:17:29.102Z,6.10
2023-03-25T02:20:16.197Z,6.00
2023-03-25T02:22:57.085Z,6.10
2023-03-25T02:25:36.389Z,6.10
2023-03-25T02:28:10.190Z,6.00
2023-03-25T02:30:53.576Z,6.00
2023-03-25T02:33:50.236Z,6.00
2023-03-25T02:37:04.132Z,6.00
2023-03-25T02:39:45.985Z,5.90
2023-03-25T02:42:20.470Z,5.90
2023-03-25T02:45:00.935Z,5.90
2023-03-25T02:47:34.518Z,5.90
2023-03-25T02:50:09.813Z,5.90
2023-03-25T02:52:44.685Z,5.90
2023-03-25T02:55:15.006Z,5.90
2023-03-25T02:57:45.959Z,5.90
2023-03-25T03:00:16.154Z,5.80
2023-03-25T03:02:46.704Z,5.80
2023-03-25T03:05:24.922Z,5.80
2023-03-25T03:08:03.910Z,5.80
2023-03-25T03:10:43.176Z,5.80
2023-03-25T03:13:25.529Z,5.90
2023-03-25T03:16:17.718Z,5.90
2023-03-25T03:19:21.264Z,6.00
2023-03-25T03:22:01.305Z,6.10
2023-03-25T03:24:38.166Z,6.10
2023-03-25T03:27:12.034Z,6.10
2023-03-25T03:29:46.624Z,6.10
2023-03-25T03:32:19.224Z,6.10
2023-03-25T03:34:51.315Z,6.10
2023-03-25T03:37:34.561Z,6.10
2023-03-25T03:40:05.555Z,6.10
2023-03-25T03:42:41.772Z,6.10
2023-03-25T03:45:21.024Z,6.10
2023-03-25T03:47:53.183Z,6.00
2023-03-25T03:50:25.483Z,5.90
2023-03-25T03:53:26.383Z,5.90
2023-03-25T03:56:01.770Z,5.70
2023-03-25T03:58:50.371Z,5.60
2023-03-25T04:01:28.164Z,5.40
2023-03-25T04:04:02.583Z,5.30
2023-03-25T04:07:14.723Z,5.20
2023-03-25T04:09:54.723Z,5.10
2023-03-25T04:12:28.851Z,5.00
2023-03-25T04:14:56.789Z,5.00
2023-03-25T04:17:24.218Z,4.90
2023-03-25T04:19:53.545Z,4.80
2023-03-25T04:22:21.847Z,4.80
2023-03-25T04:24:56.283Z,4.70
2023-03-25T04:27:23.215Z,4.70
2023-03-25T04:29:51.995Z,4.70
2023-03-25T04:32:19.127Z,4.70
2023-03-25T04:34:46.952Z,4.70
2023-03-25T04:37:14.261Z,4.70
2023-03-25T04:39:41.643Z,4.70
2023-03-25T04:42:13.699Z,4.70
2023-03-25T04:44:40.544Z,4.80
2023-03-25T04:47:14.655Z,4.80
2023-03-25T04:49:44.976Z,4.80
2023-03-25T04:52:12.025Z,4.80
2023-03-25T04:54:40.076Z,4.80
2023-03-25T04:57:08.818Z,4.80
2023-03-25T04:59:35.974Z,4.80
2023-03-25T05:02:05.808Z,4.80
2023-03-25T05:04:32.963Z,4.80
2023-03-25T05:06:59.764Z,4.80
2023-03-25T05:09:26.494Z,4.80
2023-03-25T05:11:53.681Z,4.80
2023-03-25T05:14:21.588Z,4.80
2023-03-25T05:16:48.751Z,4.80
2023-03-25T05:19:18.722Z,4.80
2023-03-25T05:21:45.919Z,4.80
2023-03-25T05:24:14.099Z,4.80
2023-03-25T05:26:42.056Z,4.70
2023-03-25T05:29:14.203Z,4.70
2023-03-25T05:31:46.054Z,4.70
2023-03-25T05:34:14.638Z,4.70
2023-03-25T05:36:41.917Z,4.70
2023-03-25T05:39:09.025Z,4.60
2023-03-25T05:41:41.613Z,4.60
2023-03-25T05:44:10.286Z,4.60
2023-03-25T05:46:37.097Z,4.60
2023-03-25T05:49:04.139Z,4.70
2023-03-25T05:51:34.221Z,4.70
2023-03-25T05:54:01.455Z,4.70
2023-03-25T05:56:28.505Z,4.70
2023-03-25T05:58:56.558Z,4.70
2023-03-25T06:01:32.813Z,4.70
2023-03-25T06:04:02.395Z,4.70
2023-03-25T06:06:32.092Z,4.80
2023-03-25T06:08:59.320Z,4.90
2023-03-25T06:11:26.197Z,5.00
2023-03-25T06:13:53.085Z,5.10
2023-03-25T06:16:27.406Z,5.20
2023-03-25T06:18:59.686Z,5.30
2023-03-25T06:21:29.042Z,5.40
2023-03-25T06:23:58.778Z,5.40
2023-03-25T06:26:26.405Z,5.50
2023-03-25T06:28:53.356Z,5.60
2023-03-25T06:31:22.873Z,5.70
2023-03-25T06:33:50.859Z,5.80
2023-03-25T06:36:20.229Z,5.80
2023-03-25T06:38:49.624Z,5.90
2023-03-25T06:41:20.466Z,6.00
2023-03-25T06:43:53.544Z,6.10
2023-03-25T06:46:40.712Z,6.30
2023-03-25T06:49:14.904Z,6.40
2023-03-25T06:51:41.667Z,6.50
2023-03-25T06:54:08.622Z,6.60
2023-03-25T06:56:35.449Z,6.60
2023-03-25T06:59:02.323Z,6.60
2023-03-25T07:01:29.209Z,6.70
2023-03-25T07:03:56.221Z,6.80
2023-03-25T07:06:23.984Z,7.10
2023-03-25T07:08:51.438Z,7.40
2023-03-25T07:11:24.485Z,7.50
2023-03-25T07:13:53.835Z,7.50
2023-03-25T07:16:21.846Z,7.70
2023-03-25T07:18:50.527Z,7.90
2023-03-25T07:21:18.236Z,7.90
2023-03-25T07:23:45.239Z,8.20
2023-03-25T07:26:13.426Z,8.20
2023-03-25T07:28:40.844Z,8.40
2023-03-25T07:31:13.059Z,8.60
2023-03-25T07:33:39.915Z,8.80
2023-03-25T07:36:08.146Z,9.10
2023-03-25T07:38:35.587Z,9.30
2023-03-25T07:41:11.289Z,9.30
2023-03-25T07:43:41.862Z,9.30
2023-03-25T07:46:22.001Z,9.00
2023-03-25T07:48:48.810Z,8.80
2023-03-25T07:51:15.721Z,8.90
2023-03-25T07:53:44.626Z,9.30
2023-03-25T07:56:12.151Z,9.70
2023-03-25T07:58:39.254Z,9.90
2023-03-25T08:01:06.644Z,10.00
2023-03-25T08:03:35.073Z,10.10
2023-03-25T08:06:02.610Z,10.00
2023-03-25T08:08:32.132Z,9.80
2023-03-25T08:10:59.697Z,9.90
2023-03-25T08:13:26.576Z,9.90
2023-03-25T08:15:53.752Z,9.90
2023-03-25T08:18:21.093Z,9.90
2023-03-25T08:20:50.284Z,10.10
2023-03-25T08:23:19.593Z,10.30
2023-03-25T08:25:50.324Z,10.60
2023-03-25T08:28:22.446Z,10.90
2023-03-25T08:30:55.699Z,10.90
2023-03-25T08:33:27.138Z,11.20
2023-03-25T08:35:56.623Z,11.20
2023-03-25T08:38:25.302Z,11.30
2023-03-25T08:40:52.591Z,11.00
2023-03-25T08:43:19.320Z,11.20
2023-03-25T08:45:46.356Z,11.30
2023-03-25T08:48:13.123Z,11.50
2023-03-25T08:50:39.910Z,11.90
2023-03-25T08:53:06.633Z,12.00
2023-03-25T08:55:33.662Z,12.00
2023-03-25T08:58:04.743Z,12.30
2023-03-25T09:00:32.310Z,12.50
2023-03-25T09:03:00.804Z,12.30
2023-03-25T09:05:27.789Z,12.00
2023-03-25T09:07:54.586Z,11.90
2023-03-25T09:10:21.611Z,11.70
2023-03-25T09:12:48.354Z,11.50
2023-03-25T09:15:15.294Z,11.40
2023-03-25T09:17:42.950Z,11.30
2023-03-25T09:20:10.654Z,11.40
2023-03-25T09:22:38.198Z,11.50
2023-03-25T09:25:06.807Z,11.70
2023-03-25T09:27:34.502Z,11.60
2023-03-25T09:30:01.583Z,11.40
2023-03-25T09:32:28.597Z,11.10
2023-03-25T09:34:57.030Z,10.90
2023-03-25T09:37:24.126Z,10.70
2023-03-25T09:39:51.161Z,10.40
2023-03-25T09:42:40.958Z,10.20
2023-03-25T09:45:12.229Z,10.00
2023-03-25T09:47:42.275Z,9.70
2023-03-25T09:50:14.697Z,9.50
2023-03-25T09:53:14.039Z,9.30
2023-03-25T09:55:44.131Z,9.00
2023-03-25T09:58:16.648Z,8.70
2023-03-25T10:00:45.345Z,8.50
2023-03-25T10:03:24.661Z,8.30
2023-03-25T10:05:51.833Z,8.20
2023-03-25T10:09:02.019Z,8.50
2023-03-25T10:11:31.432Z,8.60
2023-03-25T10:14:06.589Z,8.80
2023-03-25T10:17:11.092Z,8.70
2023-03-25T10:19:59.256Z,8.70
2023-03-25T10:22:41.035Z,8.60
2023-03-25T10:25:18.174Z,8.80
2023-03-25T10:27:49.548Z,9.10
2023-03-25T10:30:24.930Z,9.20
2023-03-25T10:33:01.677Z,9.20
2023-03-25T10:35:30.820Z,9.50
2023-03-25T10:38:21.336Z,10.20
2023-03-25T10:41:12.570Z,10.90
2023-03-25T10:43:41.833Z,11.10
2023-03-25T10:46:46.795Z,11.20
2023-03-25T10:49:20.659Z,11.60
2023-03-25T10:51:49.735Z,11.70
2023-03-25T10:54:17.389Z,12.10
2023-03-25T10:56:50.927Z,12.50
2023-03-25T10:59:24.376Z,12.50
2023-03-25T11:01:53.496Z,12.30
2023-03-25T11:04:22.137Z,12.00
2023-03-25T11:06:55.399Z,11.50
2023-03-25T11:09:30.740Z,11.20
2023-03-25T11:12:02.224Z,10.90
2023-03-25T11:14:29.856Z,10.70
2023-03-25T11:17:00.903Z,10.40
2023-03-25T11:19:37.074Z,10.30
2023-03-25T11:22:11.307Z,10.20
2023-03-25T11:24:44.119Z,10.00
2023-03-25T11:27:16.624Z,9.90
2023-03-25T11:29:54.199Z,9.80
2023-03-25T11:32:32.070Z,9.60
2023-03-25T11:35:03.672Z,9.50
2023-03-25T11:37:33.582Z,9.40
2023-03-25T11:40:13.185Z,9.20
2023-03-25T11:42:42.889Z,8.90
2023-03-25T11:45:21.445Z,8.70
2023-03-25T11:47:48.803Z,8.50
2023-03-25T11:50:25.130Z,8.30
2023-03-25T11:52:59.236Z,8.30
2023-03-25T11:55:29.581Z,8.50
2023-03-25T11:57:59.195Z,8.90
2023-03-25T12:00:29.355Z,9.00
2023-03-25T12:03:07.234Z,9.00
2023-03-25T12:05:34.533Z,9.10
2023-03-25T12:08:15.562Z,9.20
2023-03-25T12:10:57.853Z,9.60
2023-03-25T12:13:44.067Z,10.50
2023-03-25T12:16:37.792Z,11.50
2023-03-25T12:19:10.422Z,12.00
2023-03-25T12:22:04.558Z,12.30
2023-03-25T12:25:01.922Z,12.30
2023-03-25T12:27:31.492Z,12.40
2023-03-25T12:30:17.792Z,12.40
2023-03-25T12:33:22.452Z,12.20
2023-03-25T12:36:17.888Z,11.90
2023-03-25T12:39:39.502Z,11.40
2023-03-25T12:42:39.859Z,11.10
2023-03-25T12:45:34.495Z,10.90
2023-03-25T12:48:19.889Z,10.80
2023-03-25T12:51:03.772Z,10.80
2023-03-25T12:53:46.460Z,10.70
2023-03-25T12:56:37.282Z,10.90
2023-03-25T12:59:21.904Z,11.10
2023-03-25T13:02:27.113Z,11.10
2023-03-25T13:05:04.583Z,11.00
2023-03-25T13:07:44.893Z,10.90
2023-03-25T13:10:18.918Z,11.00
2023-03-25T13:12:56.358Z,11.00
2023-03-25T13:15:29.909Z,11.00
2023-03-25T13:18:06.000Z,11.00
2023-03-25T13:20:39.268Z,10.90
2023-03-25T13:23:11.680Z,10.70
2023-03-25T13:25:57.604Z,10.60
2023-03-25T13:28:30.941Z,10.60
2023-03-25T13:30:58.568Z,10.50
2023-03-25T13:33:30.385Z,10.40
2023-03-25T13:36:22.258Z,10.20
2023-03-25T13:38:53.974Z,10.00
2023-03-25T13:41:39.572Z,10.30
2023-03-25T13:44:27.480Z,10.80
2023-03-25T13:47:01.367Z,11.30
2023-03-25T13:49:35.780Z,11.70
2023-03-25T13:52:03.592Z,11.80
2023-03-25T13:54:38.840Z,11.90
2023-03-25T13:57:45.451Z,11.80
2023-03-25T14:00:21.750Z,11.80
2023-03-25T14:03:10.614Z,11.90
2023-03-25T14:05:56.263Z,11.70
2023-03-25T14:08:56.974Z,11.50
2023-03-25T14:11:37.467Z,11.50
2023-03-25T14:14:09.431Z,11.60
2023-03-25T14:16:39.028Z,11.60
2023-03-25T14:19:11.947Z,11.70
2023-03-25T14:21:39.460Z,11.90
2023-03-25T14:24:13.175Z,12.20
2023-03-25T14:26:53.311Z,12.30
2023-03-25T14:29:43.345Z,12.40
2023-03-25T14:32:16.039Z,12.20
2023-03-25T14:34:50.111Z,12.10
2023-03-25T14:37:25.963Z,12.00
2023-03-25T14:39:56.055Z,12.10
2023-03-25T14:42:29.048Z,12.00
2023-03-25T14:45:32.052Z,11.60
2023-03-25T14:47:59.314Z,11.40
2023-03-25T14:50:27.578Z,11.20
2023-03-25T14:53:05.173Z,11.20
2023-03-25T14:55:46.409Z,11.20
2023-03-25T14:58:18.277Z,11.10
2023-03-25T15:00:58.673Z,10.90
2023-03-25T15:03:35.042Z,10.70
2023-03-25T15:06:03.060Z,10.50
2023-03-25T15:08:34.574Z,10.30
2023-03-25T15:11:09.181Z,9.70
2023-03-25T15:13:52.718Z,9.30
2023-03-25T15:16:51.213Z,9.20
2023-03-25T15:19:19.635Z,9.40
2023-03-25T15:21:58.782Z,9.50
2023-03-25T15:24:39.191Z,9.60
2023-03-25T15:27:40.373Z,9.50
2023-03-25T15:30:17.511Z,9.50
2023-03-25T15:33:02.595Z,9.50
2023-03-25T15:35:50.379Z,9.50
2023-03-25T15:38:32.852Z,9.50
2023-03-25T15:41:02.688Z,9.50
2023-03-25T15:44:00.200Z,9.50
2023-03-25T15:46:55.406Z,9.50
2023-03-25T15:49:31.360Z,9.50
2023-03-25T15:52:22.449Z,9.50
2023-03-25T15:54:55.996Z,9.50
2023-03-25T15:57:34.523Z,9.50
2023-03-25T16:00:15.363Z,9.50
2023-03-25T16:02:55.461Z,9.50
2023-03-25T16:05:23.239Z,9.50
2023-03-25T16:07:50.323Z,9.50
2023-03-25T16:10:34.119Z,9.50
2023-03-25T16:13:04.318Z,9.50
2023-03-25T16:15:35.403Z,9.50
2023-03-25T16:18:06.428Z,9.50
2023-03-25T16:20:35.036Z,9.50
2023-03-25T16:23:03.808Z,9.50
2023-03-25T16:25:38.037Z,9.50
2023-03-25T16:28:07.941Z,9.50
2023-03-25T16:30:39.758Z,9.50
2023-03-25T16:33:12.494Z,9.40
2023-03-25T16:35:46.056Z,9.40
2023-03-25T16:38:17.362Z,9.40
2023-03-25T16:40:46.995Z,9.40
2023-03-25T16:43:18.916Z,9.50
2023-03-25T16:45:48.038Z,9.50
2023-03-25T16:48:27.022Z,9.60
2023-03-25T16:50:56.259Z,9.60
2023-03-25T16:53:25.723Z,9.50
2023-03-25T16:56:21.006Z,9.40
2023-03-25T16:59:03.809Z,9.40
2023-03-25T17:01:42.285Z,9.30
2023-03-25T17:04:22.302Z,9.20
2023-03-25T17:06:53.001Z,9.10
2023-03-25T17:09:22.587Z,9.00
2023-03-25T17:11:56.659Z,8.90
2023-03-25T17:14:30.709Z,8.90
2023-03-25T17:16:58.666Z,8.70
2023-03-25T17:19:27.298Z,8.70
2023-03-25T17:22:27.049Z,8.70
2023-03-25T17:24:56.785Z,8.60
2023-03-25T17:27:37.128Z,8.60
2023-03-25T17:30:42.656Z,8.50
2023-03-25T17:33:13.363Z,8.40
2023-03-25T17:35:41.784Z,8.40
2023-03-25T17:38:17.005Z,8.30
2023-03-25T17:40:43.795Z,8.20
2023-03-25T17:43:20.398Z,8.20
2023-03-25T17:45:47.428Z,8.20
2023-03-25T17:48:17.404Z,8.10
2023-03-25T17:50:54.848Z,8.10
2023-03-25T17:53:21.846Z,8.10
2023-03-25T17:55:51.124Z,8.00
2023-03-25T17:58:20.020Z,7.90
2023-03-25T18:00:47.627Z,7.90
2023-03-25T18:03:22.808Z,7.80
2023-03-25T18:05:55.975Z,7.80
2023-03-25T18:08:24.760Z,7.80
2023-03-25T18:10:53.278Z,7.70
2023-03-25T18:13:24.073Z,7.60
2023-03-25T18:15:52.838Z,7.60
2023-03-25T18:18:24.263Z,7.60
2023-03-25T18:20:52.439Z,7.50
2023-03-25T18:23:19.359Z,7.50
2023-03-25T18:25:46.421Z,7.50
2023-03-25T18:28:14.069Z,7.60
2023-03-25T18:30:43.958Z,7.50
2023-03-25T18:33:11.916Z,7.50
2023-03-25T18:35:38.738Z,7.50
2023-03-25T18:38:05.890Z,7.40
2023-03-25T18:40:35.925Z,7.40
2023-03-25T18:43:04.034Z,7.30
2023-03-25T18:45:31.174Z,7.30
2023-03-25T18:47:58.041Z,7.30
2023-03-25T18:50:39.057Z,7.30
2023-03-25T18:53:06.459Z,7.30
2023-03-25T18:55:35.261Z,7.30
2023-03-25T18:58:01.983Z,7.30
2023-03-25T19:00:38.149Z,7.30
2023-03-25T19:03:05.103Z,7.30
2023-03-25T19:05:32.432Z,7.40
2023-03-25T19:07:59.163Z,7.40
2023-03-25T19:10:29.730Z,7.50
2023-03-25T19:12:56.559Z,7.50
2023-03-25T19:15:27.645Z,7.50
2023-03-25T19:17:58.524Z,7.50
2023-03-25T19:20:29.540Z,7.60
2023-03-25T19:22:56.535Z,7.60
2023-03-25T19:25:23.344Z,7.60
2023-03-25T19:27:50.438Z,7.70
2023-03-25T19:30:20.199Z,7.70
2023-03-25T19:32:49.252Z,7.70
2023-03-25T19:35:18.140Z,7.80
2023-03-25T19:37:50.912Z,7.80
2023-03-25T19:40:20.860Z,7.90
2023-03-25T19:42:49.016Z,7.90
2023-03-25T19:45:16.823Z,7.90
2023-03-25T19:47:45.843Z,7.90
2023-03-25T19:50:18.971Z,7.90
2023-03-25T19:52:47.746Z,7.90
2023-03-25T19:55:15.454Z,7.90
2023-03-25T19:57:43.837Z,7.90
2023-03-25T20:00:13.696Z,7.90
2023-03-25T20:02:46.206Z,7.90
2023-03-25T20:05:15.228Z,7.90
2023-03-25T20:07:43.699Z,7.90
2023-03-25T20:10:19.502Z,7.90
2023-03-25T20:12:48.110Z,7.90
2023-03-25T20:15:16.634Z,7.80
2023-03-25T20:17:44.205Z,7.80
2023-03-25T20:20:13.022Z,7.80
2023-03-25T20:22:40.817Z,7.80
2023-03-25T20:25:09.766Z,7.80
2023-03-25T20:27:37.483Z,7.70
2023-03-25T20:30:06.041Z,7.70
2023-03-25T20:32:40.477Z,7.70
2023-03-25T20:35:10.190Z,7.60
2023-03-25T20:37:38.648Z,7.50
2023-03-25T20:40:11.074Z,7.40
2023-03-25T20:42:41.324Z,7.30
2023-03-25T20:45:09.681Z,7.20
2023-03-25T20:47:36.873Z,7.10
2023-03-25T20:50:05.039Z,7.00
2023-03-25T20:52:31.911Z,7.00
2023-03-25T20:54:59.194Z,6.90
2023-03-25T20:57:26.574Z,6.90
2023-03-25T20:59:53.408Z,6.80
2023-03-25T21:02:21.431Z,6.70
2023-03-25T21:04:48.420Z,6.70
2023-03-25T21:07:19.040Z,6.70
2023-03-25T21:09:47.695Z,6.70
2023-03-25T21:12:14.578Z,6.60
2023-03-25T21:14:41.948Z,6.60
2023-03-25T21:17:09.785Z,6.60
2023-03-25T21:19:36.963Z,6.60
2023-03-25T21:22:04.046Z,6.60
2023-03-25T21:24:33.854Z,6.60
2023-03-25T21:27:00.688Z,6.60
2023-03-25T21:29:27.782Z,6.60
2023-03-25T21:31:54.643Z,6.60
2023-03-25T21:34:22.164Z,6.60
2023-03-25T21:36:49.294Z,6.50
2023-03-25T21:39:16.115Z,6.50
2023-03-25T21:41:42.905Z,6.50
2023-03-25T21:44:10.146Z,6.50
2023-03-25T21:46:37.618Z,6.40
2023-03-25T21:49:04.522Z,6.40
2023-03-25T21:51:32.329Z,6.40
2023-03-25T21:54:00.329Z,6.40
2023-03-25T21:56:30.904Z,6.30
2023-03-25T21:58:58.265Z,6.30
2023-03-25T22:01:28.800Z,6.30
2023-03-25T22:03:57.612Z,6.30
2023-03-25T22:06:27.272Z,6.30
2023-03-25T22:08:56.886Z,6.30
2023-03-25T22:11:26.230Z,6.30
2023-03-25T22:13:53.085Z,6.30
2023-03-25T22:16:20.786Z,6.30
2023-03-25T22:18:48.241Z,6.30
2023-03-25T22:21:23.989Z,6.30
2023-03-25T22:23:54.737Z,6.30
2023-03-25T22:26:23.266Z,6.30
2023-03-25T22:28:58.662Z,6.30
2023-03-25T22:31:30.615Z,6.30
2023-03-25T22:34:10.718Z,6.30
2023-03-25T22:36:42.649Z,6.30
2023-03-25T22:39:10.438Z,6.30
2023-03-25T22:41:37.313Z,6.30
2023-03-25T22:44:04.277Z,6.30
2023-03-25T22:46:32.245Z,6.30
2023-03-25T22:48:59.319Z,6.30
2023-03-25T22:51:27.609Z,6.40
2023-03-25T22:53:54.373Z,6.40
2023-03-25T22:56:23.390Z,6.40
2023-03-25T22:58:53.590Z,6.50
2023-03-25T23:01:24.012Z,6.50
2023-03-25T23:03:52.431Z,6.50
2023-03-25T23:06:19.437Z,6.50
2023-03-25T23:08:47.924Z,6.50
2023-03-25T23:11:17.493Z,6.50
2023-03-25T23:13:47.642Z,6.40
2023-03-25T23:16:18.047Z,6.40
2023-03-25T23:18:44.941Z,6.40
2023-03-25T23:21:15.192Z,6.30
2023-03-25T23:23:52.762Z,6.30
2023-03-25T23:26:26.759Z,6.30
2023-03-25T23:28:57.077Z,6.20
2023-03-25T23:31:29.154Z,6.10
2023-03-25T23:33:58.363Z,6.10
2023-03-25T23:36:26.534Z,6.10
2023-03-25T23:38:53.717Z,6.00
2023-03-25T23:41:22.877Z,6.00
2023-03-25T23:43:53.810Z,5.90
2023-03-25T23:46:22.460Z,5.90
2023-03-25T23:48:49.836Z,5.90
2023-03-25T23:51:20.241Z,5.80
2023-03-25T23:53:48.755Z,5.90
2023-03-25T23:56:17.618Z,5.80
2023-03-25T23:58:44.585Z,5.80
